Tiempo atmosférico en la estación meteorológica de Andújar, Jaén (193 m.)

Fecha
DESCASC
Temp. máxima en grados centígrados (hora)
DESCASC
Temp. mínima en grados centígrados (hora)
DESCASC
Temp. media en grados centígrados
DESCASC
Racha de viento máxima en m/sg (hora)
DESCASC
Velocidad máxima media en intervalos de 10 minutos(hora)
DESCASC
Precipitaciones diarias en mm
DESCASC
Precipitaciones de 00:00 a 06:00 en mm
DESCASC
Precipitaciones de 06:00 a 12:00 en mm
DESCASC
Precipitaciones de 12:00 a 18:00 en mm
DESCASC
Precipitaciones de 18:00 a 24:00 en mm
DESCASC
17-08-2017 40.8 (16:40) 15.9 (07:50) 28.3 7.22 (23:30) 4.72 (23:30) 0 0 0 0 0
16-08-2017 38.5 (15:30) 17.9 (08:00) 28.2 8.06 (17:20) 4.72 (17:30) 0 0 0 0 0
15-08-2017 38.3 (16:40) 20.3 (00:00) 29.3 7.78 (17:00) 3.89 (02:40) 0 0 0 0 0
14-08-2017 38.5 (16:30) 19.5 (07:00) 29 7.5 (20:30) 4.72 (20:10) 0 0 0 0 0
13-08-2017 40.3 (17:00) 16.8 (00:00) 28.5 7.5 (21:50) 4.44 (21:50) 0 0 0 0 0
12-08-2017 39.1 (17:00) 14.9 (00:00) 27 8.61 (18:10) 4.72 (21:40) 0 0 0 0 0
11-08-2017 38.5 (17:30) 14.1 (00:00) 26.3 5.83 (12:00) 3.33 (12:20) 0 0 0 0 0
10-08-2017 36.4 (17:20) 17.3 (00:00) 26.9 8.33 (11:20) 4.44 (13:20) 0 0 0 0 0
09-08-2017 35.2 (16:50) 12.8 (00:00) 24 8.61 (17:50) 5.28 (23:00) 0 0 0 0 0
08-08-2017 36.2 (17:00) 18.4 (00:00) 27.3 11.39 (17:20) 5 (14:10) 0 0 0 0 0
07-08-2017 39.9 (16:40) 20.5 (00:00) 30.2 9.72 (17:20) 6.11 (18:20) 0 0 0 0 0
06-08-2017 40.7 (16:50) 19.4 (00:00) 30.1 8.33 (15:20) 4.72 (15:20) 0 0 0 0 0
05-08-2017 41.4 (16:10) 21.4 (00:00) 31.4 16.94 (16:50) 5.28 (18:30) 0 0 0 0 0
04-08-2017 44.5 (17:20) 16.2 (00:00) 30.4 6.11 (23:30) 3.33 (23:20) 0 0 0 0 0
03-08-2017 42.3 (15:30) 16 (00:00) 29.1 5 (19:50) 3.33 (19:50) 0 0 0 0 0
02-08-2017 39.9 (17:00) 15.2 (00:00) 27.6 6.39 (18:20) 2.78 (20:30) 0 0 0 0 0
01-08-2017 35.7 (16:20) 16.1 (00:00) 25.9 8.33 (00:20) 5.28 (00:20) 0 0 0 0 0
31-07-2017 37 (15:30) 18.5 (00:00) 27.8 9.72 (19:00) 6.11 (20:10) 0 0 0 0 0
30-07-2017 40 (16:20) 17.9 (00:00) 28.9 9.72 (18:10) 5 (18:30) 0 0 0 0 0
29-07-2017 40 (16:50) 17.2 (00:00) 28.6 7.22 (17:10) 4.17 (15:50) 0 0 0 0 0
28-07-2017 42.6 (17:20) 19.1 (00:00) 30.8 6.11 (23:00) 4.44 (23:20) 0 0 0 0 0
27-07-2017 39.6 (17:50) 17.9 (00:00) 28.7 7.22 (13:50) 3.89 (14:50) 0 0 0 0 0
26-07-2017 36.6 (15:50) 18.3 (00:00) 27.4 6.67 (16:50) 4.17 (19:20) 0 0 0 0 0
25-07-2017 39.7 (16:30) 17 (00:00) 28.4 11.11 (22:30) 6.67 (22:30) 0 0 0 0 0
24-07-2017 38.8 (16:30) 17.1 (00:00) 27.9 8.61 (19:10) 5.28 (00:30) 0 0 0 0 0
23-07-2017 38.3 (16:00) 15.6 (00:00) 26.9 6.94 (20:10) 4.72 (23:40) 0 0 0 0 0
22-07-2017 36.6 (16:20) 14.3 (00:00) 25.4 6.67 (18:50) 3.33 (18:20) 0 0 0 0 0
21-07-2017 32.1 (16:10) 16.8 (00:00) 24.4 10.56 (16:40) 6.11 (00:10) 0 0 0 0 0
20-07-2017 34.2 (15:10) 18.6 (00:00) 26.4 10 (18:10) 5.56 (23:50) 0 0 0 0 0
19-07-2017 35.3 (16:10) 21.7 (00:00) 28.5 10.28 (17:20) 6.11 (01:00) 0 0 0 0 0

Gráficas

Temp. máximas Temp. mínimas Temp. medias Precipitaciones Rachas de viento máximas Velocidades máximas media en intervalos de 10 minutos

Datos horarios

Fecha y hora oficial Temperatura (ºC) Velocidad del viento (km/h) Dirección del viento Racha (km/h) Dirección de racha Precipitación (mm) Presión (hPa) Tendencia (hPa) Humedad (%)
2017-08-17 23:00:00 30.8 10 Sudoeste 19 Sudoeste 0 990.5 1.2 36
2017-08-17 22:00:00 32.5 12 Sudoeste 18 Sudoeste 0 989.8 0.3 33
2017-08-17 21:00:00 32.9 9 Oeste 13 Oeste 0 989.1 -0.6 34
2017-08-17 20:00:00 34.3 8 Oeste 20 Oeste 0 989.3 -0.8 36
2017-08-17 19:00:00 36.6 10 Oeste 22 Sudoeste 0 989.5 -1.2 32
2017-08-17 18:00:00 38.7 9 Oeste 21 Oeste 0 989.7 -1.7 31
2017-08-17 17:00:00 39.7 8 Oeste 22 Oeste 0 990.1 -2 29
2017-08-17 16:00:00 39.7 9 Oeste 23 Oeste 0 990.7 -2.1 29
2017-08-17 15:00:00 38.6 9 Noroeste 18 Oeste 0 991.4 -2 28
2017-08-17 14:00:00 38.1 4 Noroeste 9 Noroeste 0 992.1 -1.4 27
2017-08-17 13:00:00 36.6 2 Noroeste 10 Sudeste 0 992.8 -0.9 31
2017-08-17 12:00:00 33.6 3 Este 13 Este 0 993.4 -0.2 36
2017-08-17 11:00:00 28.9 7 Este 13 Sudeste 0 993.5 0.3 43
2017-08-17 10:00:00 24.3 3 Sudeste 8 Este 0 993.7 1 53
2017-08-17 09:00:00 19.4 0 Calma 4 Este 0 993.6 1.2 59
2017-08-17 08:00:00 15.9 2 Sudeste 4 Este 0 993.2 0.9 57
2017-08-17 07:00:00 16.5 0 Calma 3 Sudeste 0 992.7 0.5 56
2017-08-17 06:00:00 17 0 Calma 5 Sudeste 0 992.4 -0.2 55
2017-08-17 05:00:00 18.1 3 Este 5 Este 0 992.3 -0.2 54
2017-08-17 04:00:00 19.1 0 Calma 6 Sudeste 0 992.2 -0.1 51
2017-08-17 03:00:00 19.9 0 Calma 6 Noroeste 0 992.6 0.6 51
2017-08-17 02:00:00 21.8 0 Calma 5 Sudeste 0 992.5 0.7 46
2017-08-17 01:00:00 23.8 5 Sudeste 8 Sudeste 0 992.3 0.7 39
2017-08-17 00:00:00 25.5 4 Este 7 Este 0 992 1.3 37
2017-08-16 23:00:00 26.8 5 Oeste 13 Sudoeste 0 991.8 1.2 36
2017-08-16 22:00:00 28.8 3 Noroeste 12 Oeste 0 991.6 1.2 32
2017-08-16 21:00:00 32.6 10 Oeste 21 Sudoeste 0 990.7 -0.1 29
2017-08-16 20:00:00 35.2 12 Oeste 23 Sudoeste 0 990.6 -0.7 28
2017-08-16 19:00:00 35.9 13 Oeste 23 Sudoeste 0 990.4 -1.3 30
2017-08-16 18:00:00 37.5 14 Oeste 29 Oeste 0 990.8 -1.5 29
2017-08-16 17:00:00 38.1 14 Oeste 27 Oeste 0 991.3 -1.8 31
2017-08-16 16:00:00 37.7 13 Oeste 28 Noroeste 0 991.7 -2.1 31
2017-08-16 15:00:00 37.5 9 Oeste 20 Norte 0 992.3 -2.1 31
2017-08-16 14:00:00 36 6 Noroeste 15 Oeste 0 993.1 -1.5 33
2017-08-16 13:00:00 34.6 6 Noroeste 13 Oeste 0 993.8 -0.7 36
2017-08-16 12:00:00 32.1 4 Noroeste 7 Noroeste 0 994.4 -0.1 43
2017-08-16 11:00:00 28.8 4 Noroeste 11 Noroeste 0 994.6 0.7 53
2017-08-16 10:00:00 24.8 5 Noroeste 8 Noroeste 0 994.5 0.9 63
2017-08-16 09:00:00 21 3 Noroeste 5 Noroeste 0 994.5 1 70
2017-08-16 08:00:00 18.1 3 Oeste 4 Oeste 0 993.9 0.7 73
2017-08-16 07:00:00 18.3 0 Calma 5 Sudoeste 0 993.6 0.7 73
2017-08-16 06:00:00 19.6 0 Calma 4 Sudeste 0 993.5 0.5 70
2017-08-16 05:00:00 20.1 4 Noroeste 13 Noroeste 0 993.2 0.2 69
2017-08-16 04:00:00 21.2 8 Noroeste 14 Noroeste 0 992.9 0.4 65
2017-08-16 03:00:00 21.7 7 Oeste 10 Oeste 0 993 0.6 59
2017-08-16 02:00:00 24.8 3 Oeste 17 Sudoeste 0 993 1.2 48
2017-08-16 01:00:00 28.9 13 Sudoeste 19 Sudoeste 0 992.5 1.6 43
2017-08-16 00:00:00 27.1 0 Calma 13 Oeste 0 992.4 2.2 44
2017-08-15 23:00:00 28.6 7 Noroeste 22 Sudoeste 0 991.8 2.2 48
2017-08-15 22:00:00 31.9 12 Sudoeste 20 Oeste 0 990.9 1.4 41
2017-08-15 21:00:00 33 11 Oeste 22 Oeste 0 990.2 0.7 40
2017-08-15 20:00:00 34.9 10 Oeste 25 Sudoeste 0 989.6 -0.6 39
2017-08-15 19:00:00 34.9 12 Oeste 20 Oeste 0 989.5 -1.1 39
2017-08-15 18:00:00 36.5 10 Oeste 18 Oeste 0 989.5 -1.8 38
2017-08-15 17:00:00 36.8 12 Oeste 28 Oeste 0 990.2 -1.8 38
2017-08-15 16:00:00 38 6 Oeste 19 Sudoeste 0 990.6 -2.2 38
2017-08-15 15:00:00 36.2 6 Noroeste 14 Noroeste 0 991.3 -2 42
2017-08-15 14:00:00 35 5 Oeste 13 Noroeste 0 992 -1.5 46
2017-08-15 13:00:00 32.9 4 Noroeste 14 Noroeste 0 992.8 -0.3 53
2017-08-15 12:00:00 30.5 2 Noroeste 12 Oeste 0 993.3 0.3 59
2017-08-15 11:00:00 28.9 4 Oeste 10 Oeste 0 993.5 1 65
2017-08-15 10:00:00 26.7 0 Calma 4 Oeste 0 993.1 0.9 74
2017-08-15 09:00:00 23.7 0 Calma 5 Sudoeste 0 993 1 86
2017-08-15 08:00:00 20.4 3 Sudoeste 6 Sudoeste 0 992.5 0.7 88
2017-08-15 07:00:00 21.4 0 Calma 13 Sudoeste 0 992.2 0.6 86
2017-08-15 06:00:00 22 6 Oeste 12 Oeste 0 992 0.6 84
2017-08-15 05:00:00 23.1 2 Oeste 17 Oeste 0 991.8 0.7 77
2017-08-15 04:00:00 23.9 8 Oeste 21 Oeste 0 991.6 1.1 75
2017-08-15 03:00:00 25 14 Oeste 23 Oeste 0 991.4 1.5 70
2017-08-15 02:00:00 24.2 11 Oeste 14 Oeste 0 991.1 1.8 68
2017-08-15 01:00:00 25.6 7 Oeste 12 Oeste 0 990.5 1.8 57
2017-08-15 00:00:00 26.7 9 Oeste 11 Oeste 0 989.9 2 53
2017-08-14 23:00:00 28.6 0 Calma 12 Oeste 0 989.3 2 47
2017-08-14 22:00:00 30.9 9 Oeste 24 Oeste 0 988.7 1.7 44
2017-08-14 21:00:00 32.2 15 Oeste 27 Oeste 0 987.9 0.7 42
2017-08-14 20:00:00 33.4 15 Oeste 25 Oeste 0 987.3 -0.1 42
2017-08-14 19:00:00 34.5 13 Oeste 24 Oeste 0 987 -0.9 42
2017-08-14 18:00:00 36.7 13 Oeste 24 Oeste 0 987.2 -1.2 38
2017-08-14 17:00:00 37.6 8 Noroeste 22 Oeste 0 987.4 -1.8 35
2017-08-14 16:00:00 37.5 5 Noroeste 19 Sudoeste 0 987.9 -1.9 33
2017-08-14 15:00:00 36.8 6 Oeste 14 Noroeste 0 988.4 -1.7 34
2017-08-14 14:00:00 35.9 4 Oeste 12 Este 0 989.2 -1 36
2017-08-14 13:00:00 34.7 4 Este 15 Sur 0 989.8 -0.9 38
2017-08-14 12:00:00 31.7 8 Este 18 Este 0 990.1 -0.4 48
2017-08-14 11:00:00 28.4 7 Este 14 Este 0 990.2 0 61
2017-08-14 10:00:00 25.5 3 Este 11 Este 0 990.7 0.6 70
2017-08-14 09:00:00 22.8 4 Sudeste 9 Sudeste 0 990.5 0.6 81
2017-08-14 08:00:00 20.7 4 Este 10 Este 0 990.2 -0.1 84
2017-08-14 07:00:00 19.8 0 Calma 5 Oeste 0 990.1 -0.2 84
2017-08-14 06:00:00 21.8 5 Sudoeste 14 Oeste 0 989.9 -0.6 75
2017-08-14 05:00:00 22.6 8 Oeste 19 Oeste 0 990.3 0.4 73
2017-08-14 04:00:00 22.6 13 Oeste 23 Oeste 0 990.3 0.5 72
2017-08-14 03:00:00 23.9 12 Oeste 25 Oeste 0 990.5 0.9 68
2017-08-14 02:00:00 24.9 12 Oeste 21 Oeste 0 989.9 0.9 67
2017-08-14 01:00:00 23.6 10 Noroeste 16 Noroeste 0 989.8 2.2 69
2017-08-14 00:00:00 25.2 9 Noroeste 14 Oeste 0 989.6 2.8 57
2017-08-13 23:00:00 28 8 Oeste 21 Oeste 0 989 2.5 47
2017-08-13 22:00:00 30.3 12 Oeste 27 Oeste 0 987.6 0.9 42
2017-08-13 21:00:00 32.1 4 Sudoeste 8 Noroeste 0 986.8 -0.4 37
2017-08-13 20:00:00 35.5 4 Noroeste 12 Noroeste 0 986.5 -1.3 33
2017-08-13 19:00:00 35.9 6 Noroeste 12 Noroeste 0 986.7 -1.9 34
2017-08-13 18:00:00 39.6 3 Este 14 Sudeste 0 987.2 -2.3 28
2017-08-13 17:00:00 40 2 Sudeste 14 Este 0 987.8 -2.5 27
2017-08-13 16:00:00 38.1 5 Este 18 Sudeste 0 988.6 -2.8 30
2017-08-13 15:00:00 37.7 5 Sudeste 19 Sur 0 989.5 -2.6 33
2017-08-13 14:00:00 35.1 5 Sudeste 19 Este 0 990.3 -2.3 37
2017-08-13 13:00:00 33.6 6 Este 18 Sudeste 0 991.4 -1.1 42
2017-08-13 12:00:00 31.3 5 Sudeste 11 Sudeste 0 992.1 -0.1 47
2017-08-13 11:00:00 28.4 6 Este 13 Este 0 992.6 0.5 54
2017-08-13 10:00:00 25.1 4 Este 8 Sudeste 0 992.5 0.4 64
2017-08-13 09:00:00 20.6 0 Calma 5 Este 0 992.2 0.2 74
2017-08-13 08:00:00 17 0 Calma 5 Este 0 992.1 0.2 77
2017-08-13 07:00:00 18.6 2 Sudeste 5 Este 0 992.1 0.1 71
2017-08-13 06:00:00 19.8 0 Calma 10 Sudoeste 0 992 0 67
2017-08-13 05:00:00 21.5 7 Sudoeste 19 Oeste 0 991.9 -0.1 64
2017-08-13 04:00:00 21.3 9 Oeste 15 Oeste 0 992 -0.2 66
2017-08-13 03:00:00 23 10 Oeste 16 Oeste 0 992 0.3 63
2017-08-13 02:00:00 21.2 7 Oeste 11 Oeste 0 992 0.6 68
2017-08-13 01:00:00 23.2 8 Oeste 16 Oeste 0 992.2 1.6 60
2017-08-13 00:00:00 23.8 9 Oeste 16 Oeste 0 991.7 1.7 56
2017-08-12 23:00:00 26.1 10 Oeste 20 Oeste 0 991.4 1.4 47
2017-08-12 22:00:00 30.2 15 Oeste 28 Oeste 0 990.6 0.5 40
2017-08-12 21:00:00 31 5 Oeste 7 Oeste 0 990 -0.6 39
2017-08-12 20:00:00 34.9 0 Calma 7 Oeste 0 990 -1.1 36
2017-08-12 19:00:00 36.4 0 Calma 31 Oeste 0 990.1 -1.7 31
2017-08-12 18:00:00 37.7 4 Nordeste 11 Norte 0 990.6 -2.1 29
2017-08-12 17:00:00 39.1 0 Calma 14 Este 0 991.1 -2.3 29
2017-08-12 16:00:00 37.1 3 Oeste 13 Oeste 0 991.8 -2.2 31
2017-08-12 15:00:00 36.5 0 Calma 15 Sudeste 0 992.7 -1.8 34
2017-08-12 14:00:00 35.2 3 Este 16 Sudeste 0 993.4 -1.4 36
2017-08-12 13:00:00 33.1 5 Este 13 Este 0 994 -0.8 39
2017-08-12 12:00:00 31.2 4 Este 13 Este 0 994.5 -0.4 40
2017-08-12 11:00:00 28.9 4 Este 11 Este 0 994.8 0.6 40
2017-08-12 10:00:00 24.2 0 Calma 6 Este 0 994.8 1.1 46
2017-08-12 09:00:00 19.1 0 Calma 5 Este 0 994.9 1.6 54
2017-08-12 08:00:00 15.9 0 Calma 5 Este 0 994.2 0.9 55
2017-08-12 07:00:00 15.4 2 Sudeste 6 Este 0 993.7 0.5 53
2017-08-12 06:00:00 16.1 2 Sudoeste 5 Sudeste 0 993.3 0.2 50
2017-08-12 05:00:00 17.1 0 Calma 6 Sudoeste 0 993.3 0.2 47
2017-08-12 04:00:00 16.4 6 Oeste 8 Oeste 0 993.2 0.2 49
2017-08-12 03:00:00 18.9 0 Calma 5 Sudoeste 0 993.1 0.8 44
2017-08-12 02:00:00 19.9 0 Calma 6 Sur 0 993.1 1.1 42
2017-08-12 01:00:00 23.5 0 Calma 19 Sudeste 0 993 1.7 36
2017-08-12 00:00:00 24.8 3 Este 12 Sudeste 0 992.3 2 36
2017-08-11 23:00:00 27.7 3 Este 9 Nordeste 0 992 2 36
2017-08-11 22:00:00 26.9 2 Este 9 Sudeste 0 991.3 1 39
2017-08-11 21:00:00 30.6 2 Sudoeste 8 Sudeste 0 990.3 -0.4 39
2017-08-11 20:00:00 34.6 0 Calma 9 Sudeste 0 990 -1.3 31
2017-08-11 19:00:00 35.8 3 Nordeste 18 Este 0 990.3 -1.9 29
2017-08-11 18:00:00 37.7 4 Sudeste 16 Este 0 990.7 -2.1 29
2017-08-11 17:00:00 37.6 6 Sudeste 15 Sudeste 0 991.3 -2.2 31
2017-08-11 16:00:00 37.4 5 Sudeste 14 Sudeste 0 992.2 -2 33
2017-08-11 15:00:00 35.5 6 Este 17 Este 0 992.8 -2.1 35
2017-08-11 14:00:00 34.5 5 Sudeste 17 Sudeste 0 993.5 -1.7 40
2017-08-11 13:00:00 32.3 7 Sudeste 20 Este 0 994.2 -1.1 46
2017-08-11 12:00:00 29.4 10 Este 21 Este 0 994.9 -0.5 50
2017-08-11 11:00:00 27.9 6 Este 17 Sudeste 0 995.2 0.1 50
2017-08-11 10:00:00 24.1 2 Este 6 Este 0 995.3 0.6 45
2017-08-11 09:00:00 18.3 4 Sudeste 7 Sudeste 0 995.4 0.8 54
2017-08-11 08:00:00 15.1 4 Este 8 Este 0 995.1 0.5 55
2017-08-11 07:00:00 14.5 0 Calma 4 Sudeste 0 994.7 0.5 54
2017-08-11 06:00:00 15.3 0 Calma 4 Noroeste 0 994.6 0 53
2017-08-11 05:00:00 16.3 0 Calma 7 Oeste 0 994.6 -0.4 51
2017-08-11 04:00:00 17.5 2 Sudeste 4 Sudeste 0 994.2 -0.6 47
2017-08-11 03:00:00 18 0 Calma 4 Este 0 994.6 0.4 46
2017-08-11 02:00:00 19.5 2 Sur 8 Este 0 995 1.4 44
2017-08-11 01:00:00 22.3 5 Este 12 Sudeste 0 994.8 2.1 39
2017-08-11 00:00:00 23.1 4 Sudeste 16 Sudeste 0 994.2 1.9 38
2017-08-10 23:00:00 26.2 3 Sudeste 14 Este 0 993.6 1.5 36
2017-08-10 22:00:00 27.8 0 Calma 21 Nordeste 0 992.7 0.7 36
2017-08-10 21:00:00 31.1 6 Nordeste 16 Nordeste 0 992.3 0.1 34
2017-08-10 20:00:00 33.2 7 Nordeste 17 Norte 0 992.1 -0.3 34
2017-08-10 19:00:00 33.6 8 Este 20 Este 0 992 -1 35
2017-08-10 18:00:00 34.9 3 Sudoeste 21 Este 0 992.2 -1.4 35
2017-08-10 17:00:00 35.3 3 Oeste 18 Noroeste 0 992.4 -1.7 37
2017-08-10 16:00:00 35.1 3 Nordeste 21 Sudeste 0 993 -1.5 38
2017-08-10 15:00:00 34.2 7 Sudeste 24 Este 0 993.6 -1.3 41
2017-08-10 14:00:00 32.6 8 Sudeste 27 Este 0 994.1 -0.6 45
2017-08-10 13:00:00 31 10 Este 28 Este 0 994.5 0.3 47
2017-08-10 12:00:00 28.3 12 Este 30 Este 0 994.9 0.8 48
2017-08-10 11:00:00 27.1 8 Este 23 Este 0 994.7 1.1 50
2017-08-10 10:00:00 24.7 7 Nordeste 17 Nordeste 0 994.2 1.2 57
2017-08-10 09:00:00 20.9 4 Este 8 Este 0 994.1 1.5 64
2017-08-10 08:00:00 17.7 3 Este 7 Este 0 993.6 1.4 67
2017-08-10 07:00:00 18.3 3 Este 10 Este 0 993 1.2 65
2017-08-10 06:00:00 19.6 6 Sudeste 11 Sudeste 0 992.6 1.1 64
2017-08-10 05:00:00 20 3 Este 10 Este 0 992.2 0.7 61
2017-08-10 04:00:00 19 0 Calma 5 Nordeste 0 991.8 1.2 61
2017-08-10 03:00:00 19.9 0 Calma 15 Oeste 0 991.5 1.5 61
2017-08-10 02:00:00 21.6 3 Norte 13 Norte 0 991.5 1.9 57
2017-08-10 01:00:00 24.2 9 Oeste 23 Sudoeste 0 990.6 2 48
2017-08-10 00:00:00 26.1 15 Sudoeste 26 Sudoeste 0 990 2.1 44
2017-08-09 23:00:00 27.4 19 Oeste 31 Oeste 0 989.6 2.3 35
2017-08-09 22:00:00 26.8 9 Oeste 18 Sudoeste 0 988.6 1.3 34
2017-08-09 21:00:00 30.1 14 Sudoeste 23 Sudoeste 0 987.9 0.2 33
2017-08-09 20:00:00 31.6 12 Sudoeste 27 Sudoeste 0 987.3 -0.9 32
2017-08-09 19:00:00 32.5 10 Oeste 25 Oeste 0 987.3 -1.5 34
2017-08-09 18:00:00 33.8 12 Sudoeste 31 Oeste 0 987.7 -1.8 32
2017-08-09 17:00:00 34.1 11 Oeste 25 Oeste 0 988.2 -1.6 31
2017-08-09 16:00:00 34.1 12 Oeste 29 Oeste 0 988.8 -1.3 32
2017-08-09 15:00:00 33.5 14 Oeste 30 Noroeste 0 989.5 -1 34
2017-08-09 14:00:00 32.1 12 Oeste 26 Sudoeste 0 989.8 -1 35
2017-08-09 13:00:00 30.7 10 Noroeste 19 Noroeste 0 990.1 -0.7 39
2017-08-09 12:00:00 29.4 5 Oeste 15 Oeste 0 990.5 0 40
2017-08-09 11:00:00 26.2 3 Noroeste 9 Noroeste 0 990.8 0.5 43
2017-08-09 10:00:00 22.5 0 Calma 4 Sudeste 0 990.8 0.9 46
2017-08-09 09:00:00 17.4 0 Calma 3 Noroeste 0 990.5 0.9 52
2017-08-09 08:00:00 12.9 0 Calma 0 Calma 0 990.3 0.9 53
2017-08-09 07:00:00 13.2 0 Calma 5 Sudeste 0 989.9 0.6 52
2017-08-09 06:00:00 14.4 0 Calma 8 Oeste 0 989.6 0.3 49
2017-08-09 05:00:00 14.6 0 Calma 5 Este 0 989.4 0 47
2017-08-09 04:00:00 16.2 3 Sudeste 8 Este 0 989.3 0 46
2017-08-09 03:00:00 17.9 2 Oeste 5 Este 0 989.3 0 43
2017-08-09 02:00:00 18.2 0 Calma 6 Este 0 989.4 0.2 41
2017-08-09 01:00:00 20 3 Este 6 Este 0 989.3 0.7 38
2017-08-09 00:00:00 23.3 0 Calma 10 Oeste 0 989.3 1.6 36
2017-08-08 23:00:00 24.8 6 Oeste 17 Oeste 0 989.2 1.8 35
2017-08-08 22:00:00 25 10 Oeste 14 Noroeste 0 988.6 1.1 36
2017-08-08 21:00:00 27 9 Noroeste 16 Oeste 0 987.7 0 37
2017-08-08 20:00:00 32.9 13 Oeste 26 Oeste 0 987.4 -0.6 28
2017-08-08 19:00:00 34 15 Oeste 26 Oeste 0 987.5 -1 27
2017-08-08 18:00:00 35.2 12 Oeste 41 Sudoeste 0 987.7 -1.3 28
2017-08-08 17:00:00 36.2 14 Oeste 34 Sudoeste 0 988 -1.6 28
2017-08-08 16:00:00 35.5 13 Oeste 29 Oeste 0 988.5 -1.6 28
2017-08-08 15:00:00 34 13 Oeste 32 Sudoeste 0 989 -1 30
2017-08-08 14:00:00 33.3 17 Sudoeste 31 Sudoeste 0 989.6 -0.5 30
2017-08-08 13:00:00 32.5 11 Oeste 24 Sudoeste 0 990.1 0.1 35
2017-08-08 12:00:00 30.7 9 Sudoeste 17 Sudoeste 0 990 0.2 38
2017-08-08 11:00:00 28.6 6 Oeste 14 Oeste 0 990.1 0.8 42
2017-08-08 10:00:00 24.9 6 Oeste 17 Oeste 0 990 1.4 47
2017-08-08 09:00:00 21 5 Noroeste 11 Noroeste 0 989.8 1.5 53
2017-08-08 08:00:00 19.7 4 Noroeste 9 Noroeste 0 989.3 1.1 49
2017-08-08 07:00:00 19.2 0 Calma 16 Noroeste 0 988.6 0.2 48
2017-08-08 06:00:00 21.6 7 Oeste 17 Sudoeste 0 988.3 0.3 46
2017-08-08 05:00:00 21.8 4 Noroeste 18 Sudoeste 0 988.2 0.1 44
2017-08-08 04:00:00 23.9 8 Oeste 20 Oeste 0 988.4 0.3 40
2017-08-08 03:00:00 26.8 11 Sudoeste 19 Sudoeste 0 988 -0.1 40
2017-08-08 02:00:00 28.6 14 Sudoeste 24 Oeste 0 988.1 0.3 38
2017-08-08 01:00:00 28.9 9 Sudoeste 19 Sudoeste 0 988.1 1 36
2017-08-08 00:00:00 30.1 8 Oeste 23 Oeste 0 988.1 1.8 35
2017-08-07 23:00:00 31.9 14 Sudoeste 22 Sudoeste 0 987.8 2 35
2017-08-07 22:00:00 31.8 12 Oeste 24 Oeste 0 987.1 1 35
2017-08-07 21:00:00 35.2 15 Oeste 35 Oeste 0 986.3 -0.4 30
2017-08-07 20:00:00 36.1 17 Oeste 34 Sudoeste 0 985.8 -1.2 29
2017-08-07 19:00:00 37.9 18 Oeste 33 Oeste 0 986.1 -1.5 29
2017-08-07 18:00:00 38.1 18 Oeste 35 Oeste 0 986.7 -1.7 31
2017-08-07 17:00:00 38.1 16 Noroeste 29 Oeste 0 987 -1.8 32
2017-08-07 16:00:00 39.1 10 Oeste 23 Sudoeste 0 987.6 -1.8 34
2017-08-07 15:00:00 35.2 11 Oeste 24 Oeste 0 988.4 -1.8 38
2017-08-07 14:00:00 34.4 5 Noroeste 14 Noroeste 0 988.8 -1.4 39
2017-08-07 13:00:00 34.5 5 Norte 14 Noroeste 0 989.4 -1.4 36
2017-08-07 12:00:00 32 10 Noroeste 17 Noroeste 0 990.2 -0.5 41
2017-08-07 11:00:00 31.7 2 Noroeste 7 Noroeste 0 990.2 0.6 42
2017-08-07 10:00:00 27.4 4 Noroeste 6 Noroeste 0 990.8 1.3 53
2017-08-07 09:00:00 23.8 0 Calma 12 Este 0 990.7 1.1 53
2017-08-07 08:00:00 21.3 6 Este 13 Este 0 989.6 -0.2 52
2017-08-07 07:00:00 22 3 Sudoeste 6 Sudoeste 0 989.5 -1 49
2017-08-07 06:00:00 23.2 5 Noroeste 11 Este 0 989.6 -0.4 47
2017-08-07 05:00:00 24.1 2 Sur 12 Oeste 0 989.8 -0.3 45
2017-08-07 04:00:00 24.1 6 Oeste 13 Oeste 0 990.5 0.9 46
2017-08-07 03:00:00 24.6 10 Oeste 17 Oeste 0 990 0.8 43
2017-08-07 02:00:00 27.7 9 Oeste 21 Sudoeste 0 990.1 1.3 36
2017-08-07 01:00:00 30.5 13 Sudoeste 30 Oeste 0 989.6 1.8 35
2017-08-07 00:00:00 31.5 15 Oeste 27 Sudoeste 0 989.2 2 33
2017-08-06 23:00:00 29.4 7 Oeste 14 Oeste 0 988.8 2 32
2017-08-06 22:00:00 32.2 10 Oeste 22 Oeste 0 987.8 0.8 29
2017-08-06 21:00:00 34.8 11 Oeste 21 Sudoeste 0 987.2 0 27
2017-08-06 20:00:00 36.7 12 Sudoeste 29 Oeste 0 986.8 -0.8 28
2017-08-06 19:00:00 37.4 12 Oeste 28 Sudoeste 0 987 -1.2 29
2017-08-06 18:00:00 39.4 10 Oeste 26 Oeste 0 987.2 -1.6 29
2017-08-06 17:00:00 39.8 13 Oeste 27 Noroeste 0 987.6 -1.9 28
2017-08-06 16:00:00 39.9 13 Oeste 30 Oeste 0 988.2 -1.8 30
2017-08-06 15:00:00 38.6 11 Oeste 23 Oeste 0 988.8 -1.7 34
2017-08-06 14:00:00 36.9 11 Oeste 20 Oeste 0 989.5 -0.9 38
2017-08-06 13:00:00 36.1 5 Noroeste 14 Noroeste 0 990 -0.5 39
2017-08-06 12:00:00 34.8 3 Noroeste 10 Norte 0 990.5 0.2 42
2017-08-06 11:00:00 31.3 5 Noroeste 12 Noroeste 0 990.4 0.6 47
2017-08-06 10:00:00 28 3 Noroeste 5 Noroeste 0 990.5 1.1 57
2017-08-06 09:00:00 24 2 Sudeste 6 Este 0 990.3 1.4 66
2017-08-06 08:00:00 20.2 0 Calma 5 Sudeste 0 989.8 0.9 70
2017-08-06 07:00:00 20.1 2 Noroeste 8 Oeste 0 989.4 0.7 69
2017-08-06 06:00:00 20.2 4 Oeste 7 Oeste 0 988.9 -0.3 63
2017-08-06 05:00:00 22.5 0 Calma 4 Oeste 0 988.9 -0.2 58
2017-08-06 04:00:00 24 2 Noroeste 10 Oeste 0 988.7 -0.1 56
2017-08-06 03:00:00 24.9 5 Oeste 8 Oeste 0 989.2 0.9 52
2017-08-06 02:00:00 26.3 6 Oeste 12 Noroeste 0 989.1 1.3 48
2017-08-06 01:00:00 30.2 9 Noroeste 22 Oeste 0 988.8 2.2 40
2017-08-06 00:00:00 33 14 Oeste 30 Oeste 0 988.3 2.4 36
2017-08-05 23:00:00 33.9 14 Oeste 28 Oeste 0 987.8 2.1 35
2017-08-05 22:00:00 33.6 9 Oeste 16 Oeste 0 986.6 0.6 34
2017-08-05 21:00:00 36.7 11 Oeste 24 Oeste 0 985.9 -0.4 31
2017-08-05 20:00:00 38.6 17 Sudoeste 29 Oeste 0 985.7 -0.7 28
2017-08-05 19:00:00 38.9 18 Oeste 33 Oeste 0 986 -1.5 30
2017-08-05 18:00:00 39.9 14 Oeste 30 Oeste 0 986.3 -1.8 31
2017-08-05 17:00:00 40.5 13 Oeste 61 Noroeste 0 986.4 -2.5 31
2017-08-05 16:00:00 40.3 15 Oeste 33 Oeste 0 987.5 -2.1 33
2017-08-05 15:00:00 40 13 Oeste 29 Noroeste 0 988.1 -1.9 35
2017-08-05 14:00:00 38.2 12 Noroeste 24 Noroeste 0 988.9 -1.2 38
2017-08-05 13:00:00 37.6 9 Noroeste 18 Noroeste 0 989.6 -0.5 40
2017-08-05 12:00:00 36.2 3 Noroeste 8 Noroeste 0 990 0.1 41
2017-08-05 11:00:00 34.7 2 Sudeste 6 Sur 0 990.1 0.5 44
2017-08-05 10:00:00 29.4 3 Sudeste 8 Este 0 990.1 0.9 53
2017-08-05 09:00:00 25.1 3 Este 5 Este 0 989.9 0.9 62
2017-08-05 08:00:00 21.7 3 Sudeste 5 Sudeste 0 989.6 0.5 63
2017-08-05 07:00:00 22.2 0 Calma 2 Sudeste 0 989.2 0.2 59
2017-08-05 06:00:00 23 2 Sudeste 3 Este 0 989 0.1 56
2017-08-05 05:00:00 23.3 0 Calma 4 Sudoeste 0 989.1 0.4 55
2017-08-05 04:00:00 24.4 0 Calma 3 Sudoeste 0 989 0.5 50
2017-08-05 03:00:00 25.9 0 Calma 4 Sudeste 0 988.9 0.7 47
2017-08-05 02:00:00 27.7 2 Sudeste 6 Noroeste 0 988.7 0.5 43
2017-08-05 01:00:00 30.5 2 Oeste 16 Sudoeste 0 988.5 1.1 40
2017-08-05 00:00:00 29.3 0 Calma 22 Sudoeste 0 988.2 1.4 40
2017-08-04 23:00:00 28.9 10 Noroeste 11 Noroeste 0 988.2 1.6 39
2017-08-04 22:00:00 33.4 8 Sudoeste 11 Sudoeste 0 987.4 0.6 29
2017-08-04 21:00:00 37.5 6 Sudoeste 14 Sudoeste 0 986.8 -0.3 31
2017-08-04 20:00:00 39.7 4 Oeste 14 Oeste 0 986.6 -1.2 28
2017-08-04 19:00:00 40.7 4 Oeste 13 Oeste 0 986.8 -1.7 26
2017-08-04 18:00:00 42.1 7 Sudoeste 16 Noroeste 0 987.1 -2.1 24
2017-08-04 17:00:00 42.9 4 Norte 17 Sudoeste 0 987.8 -2.2 23
2017-08-04 16:00:00 43 3 Oeste 12 Sur 0 988.5 -2.2 24
2017-08-04 15:00:00 42.7 3 Oeste 12 Sudeste 0 989.2 -2.3 25
2017-08-04 14:00:00 41.5 4 Sudeste 12 Este 0 990 -1.7 28
2017-08-04 13:00:00 39 5 Sudeste 11 Este 0 990.7 -1.1 28
2017-08-04 12:00:00 36 4 Este 13 Este 0 991.5 -0.1 32
2017-08-04 11:00:00 31.3 4 Este 11 Sudeste 0 991.7 0.2 39
2017-08-04 10:00:00 25.3 4 Este 8 Este 0 991.8 0.6 47
2017-08-04 09:00:00 20.8 3 Sudeste 5 Este 0 991.6 0.9 51
2017-08-04 08:00:00 16.9 0 Calma -- -- 0 991.5 0.8 52
2017-08-04 07:00:00 16.9 0 Calma 6 Sudeste 0 991.2 0.9 49
2017-08-04 06:00:00 18.2 4 Este 8 Este 0 990.7 0.2 46
2017-08-04 05:00:00 19.2 0 Calma 7 Este 0 990.7 0.4 43
2017-08-04 04:00:00 20.5 0 Calma 5 Sudoeste 0 990.3 0 41
2017-08-04 03:00:00 21.6 0 Calma 7 Este 0 990.5 0.2 39
2017-08-04 02:00:00 24.3 5 Sudeste 9 Sudeste 0 990.3 0.3 34
2017-08-04 01:00:00 27.8 0 Calma 18 Oeste 0 990.3 0.8 30
2017-08-04 00:00:00 29 6 Oeste 14 Sudoeste 0 990.3 1.4 29
2017-08-03 23:00:00 30.5 8 Oeste 17 Oeste 0 990 1.4 29
2017-08-03 22:00:00 30.5 10 Oeste 15 Oeste 0 989.5 0.8 30
2017-08-03 21:00:00 32.1 9 Oeste 17 Noroeste 0 988.9 -0.2 32
2017-08-03 20:00:00 37.7 9 Oeste 18 Sudoeste 0 988.6 -1 27
2017-08-03 19:00:00 39.2 4 Sudoeste 18 Sudoeste 0 988.7 -1.7 27
2017-08-03 18:00:00 41.3 5 Sudoeste 15 Sudoeste 0 989.1 -1.9 24
2017-08-03 17:00:00 42.2 0 Calma 12 Sudoeste 0 989.6 -2.4 24
2017-08-03 16:00:00 40.6 6 Noroeste 13 Oeste 0 990.4 -2.4 26
2017-08-03 15:00:00 41.4 0 Calma 11 Este 0 991 -2.4 25
2017-08-03 14:00:00 38.3 6 Este 13 Este 0 992 -1.9 30
2017-08-03 13:00:00 36.6 2 Sur 10 Sudeste 0 992.8 -1.2 33
2017-08-03 12:00:00 32.7 4 Este 9 Sudeste 0 993.4 0.1 38
2017-08-03 11:00:00 29.6 4 Este 8 Este 0 993.9 0.7 44
2017-08-03 10:00:00 25.5 3 Este 8 Este 0 994 1 50
2017-08-03 09:00:00 21 3 Este 7 Este 0 993.3 0.6 58
2017-08-03 08:00:00 16.8 0 Calma -- -- 0 993.2 0.7 64
2017-08-03 07:00:00 16.6 0 Calma -- -- 0 993 0.5 62
2017-08-03 06:00:00 17.3 0 Calma 2 Noroeste 0 992.7 0.5 58
2017-08-03 05:00:00 18.1 0 Calma 5 Oeste 0 992.5 0.4 56
2017-08-03 04:00:00 17.9 4 Oeste 5 Oeste 0 992.5 0.9 53
2017-08-03 03:00:00 20 0 Calma 7 Sur 0 992.2 0.8 47
2017-08-03 02:00:00 22.2 2 Este 8 Este 0 992.1 0.9 43
2017-08-03 01:00:00 23.4 0 Calma 8 Oeste 0 991.6 1.1 40
2017-08-03 00:00:00 26.2 2 Norte 17 Sudoeste 0 991.4 1.8 35
2017-08-02 23:00:00 25.2 6 Noroeste 14 Oeste 0 991.2 2.1 33
2017-08-02 22:00:00 30.6 8 Sudoeste 14 Sudoeste 0 990.5 1.2 28
2017-08-02 21:00:00 32.7 9 Sudoeste 16 Sudoeste 0 989.6 0.2 28
2017-08-02 20:00:00 35.6 6 Sudoeste 20 Sudoeste 0 989.1 -0.6 26
2017-08-02 19:00:00 36.1 9 Sudoeste 23 Oeste 0 989.3 -1 26
2017-08-02 18:00:00 38.5 7 Oeste 17 Oeste 0 989.4 -1.3 25
2017-08-02 17:00:00 39 4 Sudoeste 19 Oeste 0 989.7 -1.6 26
2017-08-02 16:00:00 37.7 5 Oeste 17 Sudoeste 0 990.3 -1.6 28
2017-08-02 15:00:00 38 2 Noroeste 12 Sudoeste 0 990.7 -1.6 29
2017-08-02 14:00:00 36.1 3 Noroeste 11 Este 0 991.3 -1.1 31
2017-08-02 13:00:00 34.7 4 Este 11 Este 0 991.9 -0.7 34
2017-08-02 12:00:00 32 0 Calma 8 Este 0 992.3 -0.3 39
2017-08-02 11:00:00 27.9 0 Calma 8 Nordeste 0 992.4 0.1 47
2017-08-02 10:00:00 24.6 2 Este 7 Este 0 992.6 0.5 56
2017-08-02 09:00:00 19.5 0 Calma 3 Este 0 992.6 0.7 67
2017-08-02 08:00:00 15.5 0 Calma 6 Este 0 992.3 0.3 69
2017-08-02 07:00:00 15.6 0 Calma 3 Sudeste 0 992.1 0.1 68
2017-08-02 06:00:00 16.5 0 Calma 4 Sudeste 0 991.9 -0.4 67
2017-08-02 05:00:00 17.3 2 Sudeste 5 Noroeste 0 992 -0.6 67
2017-08-02 04:00:00 17.7 3 Noroeste 7 Noroeste 0 992 -0.2 65
2017-08-02 03:00:00 20.3 3 Sudeste 6 Oeste 0 992.3 0.6 54
2017-08-02 02:00:00 20.5 0 Calma 6 Sudeste 0 992.6 1.8 51
2017-08-02 01:00:00 21.2 0 Calma 9 Noroeste 0 992.2 2 49
2017-08-02 00:00:00 24.2 0 Calma 18 Sudoeste 0 991.7 2.7 40
2017-08-01 23:00:00 25.3 8 Oeste 14 Oeste 0 990.8 2.3 37
2017-08-01 22:00:00 27.7 10 Oeste 17 Oeste 0 990.2 1.5 35
2017-08-01 21:00:00 30.6 10 Oeste 21 Oeste 0 989 0.1 33
2017-08-01 20:00:00 32.4 12 Oeste 24 Oeste 0 988.5 0.2 32
2017-08-01 19:00:00 32.7 11 Oeste 24 Oeste 0 988.7 0.1 36
2017-08-01 18:00:00 31.2 17 Oeste 27 Noroeste 0 988.9 -0.2 39
2017-08-01 17:00:00 35.2 3 Nordeste 14 Noroeste 0 988.3 -0.7 30
2017-08-01 16:00:00 34.5 2 Noroeste 12 Noroeste 0 988.6 -1.2 34
2017-08-01 15:00:00 32.8 4 Oeste 13 Este 0 989.1 -0.9 38
2017-08-01 14:00:00 30.3 4 Este 14 Este 0 989 -1.2 42
2017-08-01 13:00:00 29.6 0 Calma 14 Sudoeste 0 989.8 0.3 46
2017-08-01 12:00:00 26.5 8 Este 16 Este 0 990 0.8 54
2017-08-01 11:00:00 24.7 2 Oeste 8 Este 0 990.2 1.4 60
2017-08-01 10:00:00 21.7 0 Calma 6 Noroeste 0 989.5 1.1 70
2017-08-01 09:00:00 18.5 3 Oeste 6 Oeste 0 989.2 1.5 74
2017-08-01 08:00:00 16.9 0 Calma 8 Noroeste 0 988.8 1.1 72
2017-08-01 07:00:00 17.1 0 Calma 5 Noroeste 0 988.4 0.5 67
2017-08-01 06:00:00 18.7 0 Calma 8 Noroeste 0 987.7 0.2 62
2017-08-01 05:00:00 18.9 6 Noroeste 16 Oeste 0 987.7 0.8 61
2017-08-01 04:00:00 21.4 8 Oeste 18 Oeste 0 987.9 1.4 52
2017-08-01 03:00:00 23.8 10 Oeste 21 Oeste 0 987.5 1.2 46
2017-08-01 02:00:00 24.7 12 Oeste 18 Oeste 0 986.9 1.3 42
2017-08-01 01:00:00 26.7 13 Oeste 30 Oeste 0 986.5 1.8 39
2017-08-01 00:00:00 28.3 16 Oeste 35 Oeste 0 986.3 2.8 37
2017-07-31 23:00:00 29.7 16 Oeste 25 Oeste 0 985.6 2.9 37
2017-07-31 22:00:00 29.7 11 Oeste 23 Oeste 0 984.7 1.8 36
2017-07-31 21:00:00 31.2 14 Oeste 34 Oeste 0 983.5 0.1 37
2017-07-31 20:00:00 32.8 17 Oeste 32 Oeste 0 982.7 -1 36
2017-07-31 19:00:00 34.1 19 Oeste 35 Oeste 0 982.9 -1.5 34
2017-07-31 18:00:00 35.5 18 Oeste 35 Noroeste 0 983.4 -1.5 32
2017-07-31 17:00:00 36.5 14 Oeste 29 Oeste 0 983.7 -1.7 32
2017-07-31 16:00:00 35.8 14 Noroeste 30 Oeste 0 984.4 -1.5 34
2017-07-31 15:00:00 35.9 9 Oeste 26 Oeste 0 984.9 -1.4 35
2017-07-31 14:00:00 36.1 10 Oeste 20 Oeste 0 985.4 -1.1 35
2017-07-31 13:00:00 33.9 8 Noroeste 14 Noroeste 0 985.9 -0.5 40
2017-07-31 12:00:00 31.2 5 Noroeste 13 Noroeste 0 986.3 0 47
2017-07-31 11:00:00 29.1 3 Noroeste 7 Noroeste 0 986.5 0.5 50
2017-07-31 10:00:00 26.1 3 Noroeste 8 Oeste 0 986.4 0.5 60
2017-07-31 09:00:00 22.9 4 Noroeste 7 Noroeste 0 986.3 0.5 69
2017-07-31 08:00:00 19.7 0 Calma 6 Noroeste 0 986 0 70
2017-07-31 07:00:00 19 5 Oeste 7 Noroeste 0 985.9 -0.2 69
2017-07-31 06:00:00 20.1 0 Calma 9 Oeste 0 985.8 -0.2 63
2017-07-31 05:00:00 20.8 6 Oeste 9 Noroeste 0 986 -0.2 57
2017-07-31 04:00:00 23 6 Oeste 17 Oeste 0 986.1 0.2 53
2017-07-31 03:00:00 24.8 12 Oeste 18 Oeste 0 986 0.3 50
2017-07-31 02:00:00 25.7 0 Calma 12 Oeste 0 986.2 0.9 52
2017-07-31 01:00:00 28.7 5 Norte 17 Sudoeste 0 985.9 1.6 44
2017-07-31 00:00:00 27.4 0 Calma 8 Sudoeste 0 985.7 1.7 39
2017-07-30 23:00:00 28.9 3 Sudoeste 15 Oeste 0 985.3 1.3 35
2017-07-30 22:00:00 32 12 Oeste 31 Oeste 0 984.3 0.3 34
2017-07-30 21:00:00 33.1 14 Oeste 25 Oeste 0 984 -0.6 34
2017-07-30 20:00:00 35.6 15 Oeste 28 Oeste 0 984 -1 32
2017-07-30 19:00:00 36.6 17 Oeste 35 Oeste 0 984 -1.9 31
2017-07-30 18:00:00 37.8 15 Oeste 30 Oeste 0 984.6 -1.7 29
2017-07-30 17:00:00 38.9 16 Oeste 30 Oeste 0 985 -2.3 28
2017-07-30 16:00:00 38.8 14 Oeste 31 Oeste 0 985.9 -2.1 30
2017-07-30 15:00:00 39.5 7 Oeste 23 Oeste 0 986.3 -2.4 31
2017-07-30 14:00:00 38.1 7 Noroeste 15 Noroeste 0 987.3 -1.6 33
2017-07-30 13:00:00 36.6 3 Noroeste 9 Este 0 988 -1.4 35
2017-07-30 12:00:00 33.5 5 Este 12 Este 0 988.7 -0.9 36
2017-07-30 11:00:00 30.5 5 Este 13 Sudeste 0 988.9 -0.6 43
2017-07-30 10:00:00 27 5 Este 10 Este 0 989.4 0.1 46
2017-07-30 09:00:00 21.9 0 Calma 7 Oeste 0 989.6 0.3 64
2017-07-30 08:00:00 19.2 0 Calma 7 Este 0 989.5 0.1 58
2017-07-30 07:00:00 19.2 2 Sudeste 6 Sudeste 0 989.3 -0.3 54
2017-07-30 06:00:00 20.2 0 Calma 4 Este 0 989.3 -0.5 50
2017-07-30 05:00:00 20.9 0 Calma 5 Sudeste 0 989.4 -0.5 47
2017-07-30 04:00:00 21.9 0 Calma 4 Norte 0 989.6 -0.3 42
2017-07-30 03:00:00 22.9 0 Calma 4 Sudoeste 0 989.8 0.1 42
2017-07-30 02:00:00 23.8 4 Sudeste 6 Sudeste 0 989.9 0.6 41
2017-07-30 01:00:00 25.5 4 Oeste 7 Sudoeste 0 989.9 1.2 36
2017-07-30 00:00:00 27.8 0 Calma 16 Oeste 0 989.7 1.4 31
2017-07-29 23:00:00 31.3 11 Oeste 19 Oeste 0 989.3 1.3 28
2017-07-29 22:00:00 31.8 10 Oeste 18 Oeste 0 988.7 0.8 27
2017-07-29 21:00:00 34.6 10 Sudoeste 22 Oeste 0 988.3 -0.3 24
2017-07-29 20:00:00 36.5 10 Oeste 20 Sudoeste 0 988 -0.9 25
2017-07-29 19:00:00 37 11 Oeste 21 Oeste 0 987.9 -1.6 26
2017-07-29 18:00:00 38.8 10 Oeste 26 Noroeste 0 988.6 -1.5 26
2017-07-29 17:00:00 38.9 12 Oeste 25 Noroeste 0 988.9 -1.9 27
2017-07-29 16:00:00 39.1 11 Oeste 23 Oeste 0 989.5 -1.9 27
2017-07-29 15:00:00 38.2 14 Oeste 24 Oeste 0 990.1 -1.9 28
2017-07-29 14:00:00 39.7 3 Oeste 9 Noroeste 0 990.8 -1.5 27
2017-07-29 13:00:00 36.5 5 Sudeste 9 Este 0 991.4 -1 30
2017-07-29 12:00:00 34.5 2 Sudeste 8 Sudeste 0 992 -0.3 35
2017-07-29 11:00:00 30.4 0 Calma 6 Este 0 992.3 0.5 41
2017-07-29 10:00:00 26 0 Calma 7 Este 0 992.4 0.9 48
2017-07-29 09:00:00 21 3 Sudeste 6 Este 0 992.3 1.2 60
2017-07-29 08:00:00 17.8 0 Calma 3 Este 0 991.8 0.9 59
2017-07-29 07:00:00 17.8 0 Calma 3 Oeste 0 991.5 0.8 57
2017-07-29 06:00:00 18.7 2 Oeste 4 Oeste 0 991.1 0.3 56
2017-07-29 05:00:00 19.4 0 Calma 3 Oeste 0 990.9 0.3 52
2017-07-29 04:00:00 20 3 Oeste 5 Sudeste 0 990.7 0.4 45
2017-07-29 03:00:00 22.1 2 Sudoeste 4 Sudoeste 0 990.8 0.8 39
2017-07-29 02:00:00 24.1 0 Calma 12 Oeste 0 990.6 1.1 37
2017-07-29 01:00:00 27 7 Noroeste 15 Sudoeste 0 990.3 1.6 31
2017-07-29 00:00:00 27.9 5 Noroeste 22 Sudoeste 0 990 1.9 30
2017-07-28 23:00:00 32 14 Oeste 22 Oeste 0 989.5 1.8 26
2017-07-28 22:00:00 32.4 10 Oeste 15 Oeste 0 988.7 1.2 25
2017-07-28 21:00:00 34.9 10 Oeste 20 Oeste 0 988.1 0.2 25
2017-07-28 20:00:00 36.7 10 Oeste 20 Sudoeste 0 987.7 -0.8 25
2017-07-28 19:00:00 38.2 7 Oeste 21 Oeste 0 987.5 -1.5 25
2017-07-28 18:00:00 39.6 9 Oeste 21 Oeste 0 987.9 -1.9 22
2017-07-28 17:00:00 42 3 Oeste 14 Oeste 0 988.5 -1.9 20
2017-07-28 16:00:00 41.1 4 Oeste 17 Oeste 0 989 -2 23
2017-07-28 15:00:00 40 4 Oeste 15 Sudoeste 0 989.8 -1.5 27
2017-07-28 14:00:00 39.1 3 Oeste 12 Noroeste 0 990.4 -1 29
2017-07-28 13:00:00 35.8 2 Noroeste 7 Noroeste 0 991 -0.7 34
2017-07-28 12:00:00 33.3 3 Noroeste 8 Noroeste 0 991.3 -0.1 37
2017-07-28 11:00:00 31.3 3 Este 7 Sudeste 0 991.4 0.4 43
2017-07-28 10:00:00 26.8 0 Calma 5 Este 0 991.7 1.1 52
2017-07-28 09:00:00 22.5 0 Calma 6 Sudeste 0 991.4 1.1 61
2017-07-28 08:00:00 19.4 2 Sudeste 6 Este 0 991 0.6 62
2017-07-28 07:00:00 20.7 0 Calma 9 Oeste 0 990.6 0.6 61
2017-07-28 06:00:00 20.1 0 Calma 4 Oeste 0 990.3 0.5 57
2017-07-28 05:00:00 20.4 0 Calma 5 Norte 0 990.4 0.8 54
2017-07-28 04:00:00 21.5 3 Oeste 5 Oeste 0 990 0.8 47
2017-07-28 03:00:00 23.4 0 Calma 5 Sudoeste 0 989.8 1.1 40
2017-07-28 02:00:00 25.1 2 Sudeste 6 Noroeste 0 989.6 1.1 35
2017-07-28 01:00:00 27.1 3 Noroeste 21 Oeste 0 989.2 1.5 31
2017-07-28 00:00:00 30.5 12 Sudoeste 22 Sudoeste 0 988.7 1.7 29
2017-07-27 23:00:00 29.2 9 Oeste 17 Oeste 0 988.5 1.7 32
2017-07-27 22:00:00 31 9 Oeste 15 Oeste 0 987.7 0.7 28
2017-07-27 21:00:00 34 9 Oeste 19 Oeste 0 987 -0.3 25
2017-07-27 20:00:00 36.2 11 Sudoeste 22 Oeste 0 986.8 -1 25
2017-07-27 19:00:00 36.9 10 Oeste 21 Oeste 0 987 -1.4 28
2017-07-27 18:00:00 38.4 9 Noroeste 20 Oeste 0 987.3 -- 27
2017-07-27 17:00:00 38.9 11 Oeste 21 Oeste 0 987.8 -1.9 28
2017-07-27 16:00:00 33.1 14 Oeste 22 Oeste 3.7 988.4 -1.9 60
2017-07-27 15:00:00 -- 14 Oeste -- -- -- -- -- --
2017-07-27 14:00:00 35.7 10 Oeste 26 Noroeste 0 989.7 -1.5 44
2017-07-27 13:00:00 34.6 4 Oeste 11 Norte 0 990.3 -1 45
2017-07-27 12:00:00 31.7 3 Noroeste 9 Noroeste 0 990.8 -0.5 50
2017-07-27 11:00:00 30.2 0 Calma 6 Este 0 991.2 0.4 51
2017-07-27 10:00:00 25.6 2 Sudeste 7 Sudeste 0 991.3 0.8 58
2017-07-27 09:00:00 21.6 0 Calma 3 Sudeste 0 991.3 1.2 67
2017-07-27 08:00:00 18.3 0 Calma 3 Sudeste 0 990.8 1 69
2017-07-27 07:00:00 18.3 0 Calma 5 Este 0 990.5 1 64
2017-07-27 06:00:00 18.9 0 Calma 3 Este 0 990.1 0.5 62
2017-07-27 05:00:00 19.4 0 Calma 6 Este 0 989.8 0.3 60
2017-07-27 04:00:00 20.2 0 Calma 4 Noroeste 0 989.5 -0.1 58
2017-07-27 03:00:00 21.1 0 Calma 4 Sudoeste 0 989.6 0.2 55
2017-07-27 02:00:00 22.3 0 Calma 4 Sudoeste 0 989.5 0.4 54
2017-07-27 01:00:00 22.5 2 Oeste 8 Oeste 0 989.6 1.1 54
2017-07-27 00:00:00 24.8 0 Calma 7 Este 0 989.4 1.4 46
2017-07-26 23:00:00 26 3 Sur 4 Sur 0 989.1 1.7 43
2017-07-26 22:00:00 27.9 0 Calma 15 Oeste 0 988.5 1.2 42
2017-07-26 21:00:00 31.7 14 Oeste 23 Oeste 0 988 0.4 37
2017-07-26 20:00:00 33.1 13 Oeste 23 Noroeste 0 987.4 -0.6 37
2017-07-26 19:00:00 34.1 13 Oeste 21 Sudoeste 0 987.3 -1.2 39
2017-07-26 18:00:00 35 10 Oeste 22 Oeste 0 987.6 -1.4 38
2017-07-26 17:00:00 35.3 13 Oeste 24 Oeste 0 988 -1.7 38
2017-07-26 16:00:00 36 11 Noroeste 21 Oeste 0 988.5 -1.8 38
2017-07-26 15:00:00 35.4 9 Oeste 19 Oeste 0 989 -1.5 39
2017-07-26 14:00:00 35.5 4 Noroeste 14 Oeste 0 989.7 -0.9 38
2017-07-26 13:00:00 33.2 5 Oeste 15 Oeste 0 990.3 -0.3 41
2017-07-26 12:00:00 31 7 Oeste 15 Oeste 0 990.5 0.3 48
2017-07-26 11:00:00 29 6 Oeste 11 Noroeste 0 990.6 0.9 54
2017-07-26 10:00:00 25.3 2 Oeste 5 Oeste 0 990.6 1.3 65
2017-07-26 09:00:00 21.7 0 Calma 3 Oeste 0 990.2 1.2 77
2017-07-26 08:00:00 18.9 0 Calma 6 Noroeste 0 989.7 0.7 80
2017-07-26 07:00:00 19.5 3 Noroeste 6 Oeste 0 989.3 0.4 75
2017-07-26 06:00:00 19.7 6 Oeste 9 Oeste 0 989 0.2 72
2017-07-26 05:00:00 20.4 2 Oeste 6 Oeste 0 989 0.5 65
2017-07-26 04:00:00 21.5 0 Calma 4 Noroeste 0 988.9 1 60
2017-07-26 03:00:00 22.6 5 Oeste 7 Noroeste 0 988.8 1.3 58
2017-07-26 02:00:00 25.3 2 Noroeste 18 Oeste 0 988.5 2.2 50
2017-07-26 01:00:00 27.9 2 Norte 23 Noroeste 0 987.9 2.5 46
2017-07-26 00:00:00 29.4 11 Noroeste 39 Sudoeste 0 987.5 2.5 43
2017-07-25 23:00:00 31 23 Oeste 40 Sudoeste 0 986.3 1.6 40
2017-07-25 22:00:00 33 16 Oeste 27 Oeste 0 985.4 0.7 34
2017-07-25 21:00:00 33.9 14 Oeste 22 Oeste 0 985 -0.1 33
2017-07-25 20:00:00 35.8 10 Oeste 21 Oeste 0 984.7 -1.1 32
2017-07-25 19:00:00 37.2 8 Sudoeste 22 Oeste 0 984.7 -2 31
2017-07-25 18:00:00 38 7 Sudoeste 19 Oeste 0 985.1 -2.3 30
2017-07-25 17:00:00 38.5 8 Noroeste 23 Oeste 0 985.8 -2.6 31
2017-07-25 16:00:00 38.2 10 Noroeste 23 Norte 0 986.7 -2.3 30
2017-07-25 15:00:00 37.9 7 Noroeste 15 Sur 0 987.4 -2.1 31
2017-07-25 14:00:00 38.7 2 Sudeste 10 Este 0 988.4 -1.5 31
2017-07-25 13:00:00 35.9 6 Este 17 Este 0 989 -1 35
2017-07-25 12:00:00 33.1 8 Este 15 Este 0 989.5 -0.7 40
2017-07-25 11:00:00 29.8 8 Este 13 Este 0 989.9 0.1 43
2017-07-25 10:00:00 25.7 3 Este 7 Este 0 990 0.6 54
2017-07-25 09:00:00 21.9 0 Calma 5 Este 0 990.2 0.8 61
2017-07-25 08:00:00 17.9 0 Calma 6 Este 0 989.8 0.4 63
2017-07-25 07:00:00 17.8 0 Calma 3 Sudeste 0 989.4 -0.2 59
2017-07-25 06:00:00 18.5 0 Calma 7 Noroeste 0 989.4 -0.5 57
2017-07-25 05:00:00 19.1 7 Oeste 9 Oeste 0 989.4 -0.6 54
2017-07-25 04:00:00 20.8 0 Calma 5 Sudeste 0 989.6 -0.4 47
2017-07-25 03:00:00 22.2 4 Oeste 6 Oeste 0 989.9 0.2 45
2017-07-25 02:00:00 23.2 0 Calma 10 Sudeste 0 990 0.3 43
2017-07-25 01:00:00 25.3 4 Sudoeste 13 Sudoeste 0 990 0.9 39
2017-07-25 00:00:00 28.9 10 Sudoeste 14 Sudoeste 0 989.7 1 37
2017-07-24 23:00:00 26.4 0 Calma 8 Oeste 0 989.7 1.1 38
2017-07-24 22:00:00 27.8 8 Oeste 13 Oeste 0 989.1 0.4 39
2017-07-24 21:00:00 31 8 Oeste 20 Noroeste 0 988.7 -0.2 38
2017-07-24 20:00:00 35 13 Oeste 31 Oeste 0 988.6 -1 32
2017-07-24 19:00:00 36.3 13 Oeste 28 Sudoeste 0 988.7 -1.6 32
2017-07-24 18:00:00 37 14 Oeste 27 Oeste 0 988.9 -2.1 32
2017-07-24 17:00:00 37 12 Oeste 28 Noroeste 0 989.6 -2.1 33
2017-07-24 16:00:00 37.9 8 Oeste 24 Oeste 0 990.3 -2.3 32
2017-07-24 15:00:00 36.5 9 Oeste 22 Noroeste 0 991 -2.1 34
2017-07-24 14:00:00 37.1 4 Sudoeste 16 Sur 0 991.7 -1.9 33
2017-07-24 13:00:00 33.3 6 Oeste 12 Oeste 0 992.6 -1.3 41
2017-07-24 12:00:00 31.3 3 Noroeste 9 Noroeste 0 993.1 -0.7 43
2017-07-24 11:00:00 28.1 5 Noroeste 10 Oeste 0 993.6 -0.2 52
2017-07-24 10:00:00 25.1 2 Noroeste 7 Oeste 0 993.9 0.7 59
2017-07-24 09:00:00 20.3 5 Oeste 7 Oeste 0 993.8 0.7 73
2017-07-24 08:00:00 17.7 0 Calma 5 Noroeste 0 993.8 0.8 68
2017-07-24 07:00:00 18.3 3 Oeste 8 Oeste 0 993.2 0.2 63
2017-07-24 06:00:00 19.5 5 Oeste 6 Oeste 0 993.1 0.1 60
2017-07-24 05:00:00 20.9 6 Oeste 22 Oeste 0 993 0 54
2017-07-24 04:00:00 22.1 9 Oeste 19 Sudoeste 0 993 0.3 56
2017-07-24 03:00:00 21.5 0 Calma 6 Noroeste 0 993 0.9 55
2017-07-24 02:00:00 22.8 4 Noroeste 9 Noroeste 0 993 1.2 52
2017-07-24 01:00:00 26.6 6 Noroeste 28 Sudoeste 0 992.7 1.9 40
2017-07-24 00:00:00 29.8 16 Sudoeste 23 Sudoeste 0 992.1 2 34
2017-07-23 23:00:00 29.8 9 Sudoeste 15 Sudoeste 0 991.8 2.2 30
2017-07-23 22:00:00 30.2 9 Oeste 17 Oeste 0 990.8 1.1 29
2017-07-23 21:00:00 33 11 Oeste 25 Sudoeste 0 990.1 0 32
2017-07-23 20:00:00 34.4 10 Oeste 23 Oeste 0 989.6 -1.3 31
2017-07-23 19:00:00 35.4 13 Oeste 21 Sudoeste 0 989.7 -1.8 29
2017-07-23 18:00:00 36.9 11 Oeste 21 Oeste 0 990.1 -2.2 28
2017-07-23 17:00:00 37.7 8 Noroeste 21 Oeste 0 990.9 -2 30
2017-07-23 16:00:00 37.9 3 Oeste 19 Oeste 0 991.5 -1.9 30
2017-07-23 15:00:00 35.4 7 Noroeste 19 Noroeste 0 992.3 -1.1 35
2017-07-23 14:00:00 33.9 8 Noroeste 16 Oeste 0 992.9 -0.5 39
2017-07-23 13:00:00 33 4 Oeste 14 Noroeste 0 993.4 -0.3 42
2017-07-23 12:00:00 30.2 5 Noroeste 13 Oeste 0 993.4 0 48
2017-07-23 11:00:00 27.8 0 Calma 9 Oeste 0 993.4 0.5 53
2017-07-23 10:00:00 24.3 3 Noroeste 6 Noroeste 0 993.7 1.1 64
2017-07-23 09:00:00 21.3 0 Calma 2 Sudoeste 0 993.4 1.2 68
2017-07-23 08:00:00 16.8 0 Calma 4 Noroeste 0 992.9 1 72
2017-07-23 07:00:00 16.4 4 Noroeste 6 Noroeste 0 992.6 1.1 73
2017-07-23 06:00:00 17.6 2 Oeste 7 Oeste 0 992.2 0.4 68
2017-07-23 05:00:00 18 4 Oeste 6 Oeste 0 991.9 0.6 64
2017-07-23 04:00:00 20 0 Calma 7 Oeste 0 991.5 0.4 54
2017-07-23 03:00:00 19.6 0 Calma 12 Oeste 0 991.8 1.5 51
2017-07-23 02:00:00 19.6 11 Oeste 23 Sudoeste 0 991.3 1.8 50
2017-07-23 01:00:00 21.6 0 Calma 11 Sudoeste 0 991.1 2.5 45
2017-07-23 00:00:00 22.9 0 Calma 13 Oeste 0 990.3 2.2 44
2017-07-22 23:00:00 21.8 12 Noroeste 15 Oeste 0 989.5 1.6 44
2017-07-22 22:00:00 25.9 5 Oeste 10 Oeste 0 988.6 0.6 35
2017-07-22 21:00:00 28.5 9 Oeste 14 Oeste 0 988.1 0 36
2017-07-22 20:00:00 31.9 12 Oeste 19 Oeste 0 987.9 -0.8 32
2017-07-22 19:00:00 33.2 12 Noroeste 24 Noroeste 0 988 -1 30
2017-07-22 18:00:00 34.9 10 Noroeste 22 Noroeste 0 988.1 -1.4 30
2017-07-22 17:00:00 35.3 8 Oeste 18 Noroeste 0 988.7 -1.2 30
2017-07-22 16:00:00 34.8 8 Oeste 24 Oeste 0 989 -1.4 32
2017-07-22 15:00:00 33.9 5 Oeste 18 Sudoeste 0 989.5 -1.5 33
2017-07-22 14:00:00 33.7 3 Sudeste 12 Este 0 989.9 -1.4 35
2017-07-22 13:00:00 30.5 2 Noroeste 10 Noroeste 0 990.4 -1 47
2017-07-22 12:00:00 27.8 3 Noroeste 8 Sudeste 0 991 0.1 56
2017-07-22 11:00:00 24.2 0 Calma 10 Noroeste 0 991.3 0.9 66
2017-07-22 10:00:00 20.9 3 Noroeste 10 Noroeste 0 991.4 1.3 77
2017-07-22 09:00:00 18.8 3 Noroeste 6 Noroeste 0 990.9 0.9 81
2017-07-22 08:00:00 15.1 0 Calma 4 Sur 0 990.4 0.7 88
2017-07-22 07:00:00 15.1 0 Calma 5 Noroeste 0 990.1 0.6 86
2017-07-22 06:00:00 15.7 4 Oeste 10 Oeste 0 990 0.6 84
2017-07-22 05:00:00 16.7 7 Oeste 10 Oeste 0 989.7 0.4 82
2017-07-22 04:00:00 17.8 7 Oeste 12 Oeste 0 989.5 0.7 74
2017-07-22 03:00:00 18.7 5 Oeste 12 Oeste 0 989.4 0.8 70
2017-07-22 02:00:00 19.9 7 Oeste 16 Oeste 0 989.3 1.1 64
2017-07-22 01:00:00 21.5 9 Oeste 18 Sudoeste 0 988.8 1.4 53
2017-07-22 00:00:00 23 10 Sudoeste 19 Oeste 0 988.6 1.8 42
2017-07-21 23:00:00 24 9 Oeste 18 Sudoeste 0 988.2 1.7 40
2017-07-21 22:00:00 25.4 9 Sudoeste 19 Oeste 0 987.4 0.9 37
2017-07-21 21:00:00 27.8 12 Oeste 24 Oeste 0 986.8 0.1 35
2017-07-21 20:00:00 29.3 15 Oeste 27 Oeste 0 986.5 -0.3 35
2017-07-21 19:00:00 29.9 18 Oeste 32 Noroeste 0 986.5 -0.7 37
2017-07-21 18:00:00 31.2 18 Oeste 31 Noroeste 0 986.7 -1 38
2017-07-21 17:00:00 31.2 18 Oeste 38 Oeste 0 986.8 -1.6 41
2017-07-21 16:00:00 31.5 13 Oeste 32 Oeste 0 987.2 -1.6 44
2017-07-21 15:00:00 29.6 16 Oeste 33 Oeste 0 987.7 -1.3 45
2017-07-21 14:00:00 29.8 17 Oeste 33 Oeste 0 988.4 -0.9 48
2017-07-21 13:00:00 28.8 9 Oeste 26 Noroeste 0 988.8 -0.6 53
2017-07-21 12:00:00 26.4 7 Noroeste 18 Oeste 0 989 -0.1 61
2017-07-21 11:00:00 24.3 5 Noroeste 18 Sudoeste 0 989.3 0.6 70
2017-07-21 10:00:00 21.1 12 Oeste 19 Oeste 0 989.4 1.1 81
2017-07-21 09:00:00 19.8 10 Oeste 19 Oeste 0 989.1 1.3 84
2017-07-21 08:00:00 17.5 6 Oeste 12 Oeste 0 988.7 0.8 88
2017-07-21 07:00:00 17.5 4 Oeste 10 Oeste 0 988.3 0.5 84
2017-07-21 06:00:00 18.2 6 Oeste 12 Oeste 0 987.8 0 80
2017-07-21 05:00:00 19.8 9 Oeste 17 Oeste 0 987.9 0.1 74
2017-07-21 04:00:00 20.7 9 Oeste 21 Oeste 0 987.8 0.4 70
2017-07-21 03:00:00 21.2 12 Oeste 21 Oeste 0 987.8 0.8 68
2017-07-21 02:00:00 22.2 15 Oeste 27 Sudoeste 0 987.8 1.2 60
2017-07-21 01:00:00 23.4 10 Oeste 34 Sudoeste 0 987.4 1.7 57
2017-07-21 00:00:00 24.9 19 Oeste 36 Oeste 0 987 1.5 50
2017-07-20 23:00:00 26.7 15 Oeste 26 Oeste 0 986.6 1.8 41
2017-07-20 22:00:00 28.1 13 Oeste 26 Oeste 0 985.7 0.4 39
2017-07-20 21:00:00 29.9 16 Oeste 29 Oeste 0 985.5 -0.1 38
2017-07-20 20:00:00 31.1 14 Oeste 28 Oeste 0 984.8 -1.4 36
2017-07-20 19:00:00 31.6 18 Oeste 36 Oeste 0 985.3 -1.5 37
2017-07-20 18:00:00 32.9 13 Oeste 30 Sudoeste 0 985.6 -2.1 37
2017-07-20 17:00:00 33.9 15 Noroeste 27 Noroeste 0 986.2 -2.1 38
2017-07-20 16:00:00 34 10 Noroeste 29 Oeste 0 986.8 -2.2 38
2017-07-20 15:00:00 33 14 Oeste 28 Oeste 0 987.7 -1.9 41
2017-07-20 14:00:00 32.1 11 Noroeste 22 Oeste 0 988.3 -1.7 42
2017-07-20 13:00:00 31.6 8 Noroeste 18 Noroeste 0 989 -1.1 46
2017-07-20 12:00:00 29.7 4 Noroeste 11 Noroeste 0 989.6 -0.6 53
2017-07-20 11:00:00 26.9 6 Noroeste 11 Noroeste 0 990 0.2 63
2017-07-20 10:00:00 24.4 5 Oeste 13 Oeste 0 990.1 0.6 73
2017-07-20 09:00:00 22.3 6 Noroeste 10 Noroeste 0 990.2 0.9 83
2017-07-20 08:00:00 19.4 0 Calma 3 Oeste 0 989.8 0.5 87
2017-07-20 07:00:00 18.8 0 Calma 9 Oeste 0 989.5 0.1 88
2017-07-20 06:00:00 19 9 Oeste 10 Oeste 0 989.3 -0.3 86
2017-07-20 05:00:00 19.8 8 Oeste 10 Oeste 0 989.3 -0.3 82
2017-07-20 04:00:00 21.2 8 Oeste 17 Oeste 0 989.4 0.2 74
2017-07-20 03:00:00 23.3 9 Oeste 19 Oeste 0 989.6 0.6 67
2017-07-20 02:00:00 24.5 9 Oeste 24 Oeste 0 989.6 1 60
2017-07-20 01:00:00 26.3 15 Sudoeste 28 Oeste 0 989.2 1.6 53
2017-07-20 00:00:00 27.6 18 Oeste 32 Oeste 0 989 1.9 50
2017-07-19 23:00:00 28.4 16 Oeste 24 Oeste 0 988.6 1.6 46
2017-07-19 22:00:00 29.5 9 Oeste 22 Oeste 0 987.6 0.5 43
2017-07-19 21:00:00 31.5 15 Sudoeste 30 Oeste 0 987.1 -0.3 40
2017-07-19 20:00:00 32.5 16 Sudoeste 32 Oeste 0 987 -0.9 39
2017-07-19 19:00:00 33.3 18 Oeste 36 Sudoeste 0 987.1 -1.2 39
2017-07-19 18:00:00 34.2 17 Oeste 37 Oeste 0 987.4 -1.3 40
2017-07-19 17:00:00 34.2 18 Oeste 35 Oeste 0 987.9 -1.5 41
2017-07-19 16:00:00 34.6 17 Oeste 32 Oeste 0 988.3 -1.7 42
2017-07-19 15:00:00 33.6 15 Oeste 32 Sudoeste 0 988.7 -1.6 45
2017-07-19 14:00:00 32.6 13 Oeste 29 Oeste 0 989.4 -0.9 49
2017-07-19 13:00:00 31.8 14 Oeste 27 Oeste 0 990 -0.2 54
2017-07-19 12:00:00 30.1 13 Oeste 24 Sudoeste 0 990.3 0 60
2017-07-19 11:00:00 27.9 12 Oeste 21 Oeste 0 990.3 0.4 65
2017-07-19 10:00:00 25.8 9 Oeste 18 Oeste 0 990.2 0.5 71
2017-07-19 09:00:00 24.5 7 Noroeste 12 Noroeste 0 990.3 1.3 76
2017-07-19 08:00:00 22.3 2 Noroeste 9 Oeste 0 989.9 1.2 76
2017-07-19 07:00:00 22.8 4 Sudoeste 17 Sudoeste 0 989.7 1.4 67
2017-07-19 06:00:00 23.8 7 Oeste 23 Oeste 0 989 0.5 61
2017-07-19 05:00:00 26 17 Oeste 28 Oeste 0 988.7 0.1 57
2017-07-19 04:00:00 26.8 14 Sudoeste 20 Oeste 0 988.3 0.1 56
2017-07-19 03:00:00 27.8 10 Oeste 24 Oeste 0 988.5 0.7 52
2017-07-19 02:00:00 28.4 7 Oeste 31 Oeste 0 988.6 1.8 50
2017-07-19 01:00:00 30.2 22 Oeste 35 Oeste 0 988.2 2.6 45
2017-07-19 00:00:00 31.1 14 Oeste 23 Sudoeste 0 987.8 2.7 39